Cuamba Airport


Codes: FQCB/FXO
Name: Cuamba Airport
City: Cuamba
Country: Mozambique
Elevation: 1919 ft.

Photos at Cuamba Airport


   Photos courtesy of SpottingLog. You can add your own sightings and photos by signing up for a free trial today.



No photos found.

Weather at Cuamba Airport


Time (UTC)DescriptionTempratureWindCloud coverageVisibilityPressureHumidity
19-Apr-2024 03:00Broken Clouds19°C2 mph, S78%10000m1017hPa99%
19-Apr-2024 06:00Broken Clouds21°C2 mph, S79%10000m1017hPa95%
19-Apr-2024 09:00Light Rain25°C0 mph, S81%10000m1016hPa75%
19-Apr-2024 12:00Light Rain29°C2 mph, SE90%10000m1013hPa63%
19-Apr-2024 15:00Light Rain23°C4 mph, S86%10000m1014hPa90%
19-Apr-2024 18:00Light Rain21°C4 mph, S90%10000m1016hPa96%
19-Apr-2024 21:00Light Rain20°C4 mph, S83%10000m1016hPa98%
20-Apr-2024 00:00Overcast Clouds19°C4 mph, S92%10000m1015hPa99%
20-Apr-2024 03:00Overcast Clouds19°C4 mph, S100%10000m1015hPa99%
20-Apr-2024 06:00Broken Clouds22°C4 mph, S76%10000m1016hPa86%
20-Apr-2024 09:00Light Rain27°C4 mph, S63%10000m1014hPa62%
20-Apr-2024 12:00Light Rain28°C7 mph, S72%10000m1011hPa58%
20-Apr-2024 15:00Light Rain24°C4 mph, S87%10000m1012hPa74%
20-Apr-2024 18:00Broken Clouds21°C4 mph, S57%10000m1015hPa82%
20-Apr-2024 21:00Clear Sky19°C4 mph, S0%10000m1015hPa89%
21-Apr-2024 00:00Clear Sky18°C2 mph, S2%10000m1014hPa96%
21-Apr-2024 03:00Clear Sky17°C2 mph, S7%10000m1015hPa98%
21-Apr-2024 06:00Clear Sky22°C2 mph, S8%10000m1016hPa75%
21-Apr-2024 09:00Clear Sky28°C2 mph, S7%10000m1014hPa49%
21-Apr-2024 12:00Scattered Clouds29°C2 mph, SE35%10000m1011hPa43%
21-Apr-2024 15:00Broken Clouds24°C2 mph, NE79%10000m1012hPa68%
21-Apr-2024 18:00Scattered Clouds20°C2 mph, S49%10000m1014hPa80%
21-Apr-2024 21:00Clear Sky19°C2 mph, SE7%10000m1015hPa86%
22-Apr-2024 00:00Few Clouds18°C2 mph, S11%10000m1015hPa93%
22-Apr-2024 03:00Clear Sky17°C2 mph, S0%10000m1016hPa95%
22-Apr-2024 06:00Clear Sky22°C2 mph, S0%10000m1017hPa72%
22-Apr-2024 09:00Clear Sky29°C0 mph, SW0%10000m1015hPa53%
22-Apr-2024 12:00Clear Sky30°C0 mph, E8%10000m1012hPa44%
22-Apr-2024 15:00Scattered Clouds25°C2 mph, NE32%10000m1012hPa64%
22-Apr-2024 18:00Broken Clouds22°C2 mph, S65%10000m1014hPa71%
22-Apr-2024 21:00Overcast Clouds21°C2 mph, SE99%10000m1015hPa76%
23-Apr-2024 00:00Overcast Clouds19°C2 mph, S97%10000m1015hPa88%
23-Apr-2024 03:00Few Clouds18°C2 mph, S24%10000m1015hPa94%
23-Apr-2024 06:00Few Clouds23°C2 mph, S12%10000m1016hPa72%
23-Apr-2024 09:00Clear Sky30°C2 mph, SE2%10000m1015hPa52%
23-Apr-2024 12:00Clear Sky31°C2 mph, SE8%10000m1012hPa44%
23-Apr-2024 15:00Broken Clouds26°C2 mph, SE82%10000m1012hPa62%
23-Apr-2024 18:00Overcast Clouds24°C2 mph, S90%10000m1015hPa68%
23-Apr-2024 21:00Broken Clouds21°C2 mph, S69%10000m1015hPa85%
24-Apr-2024 00:00Broken Clouds19°C4 mph, S73%10000m1014hPa93%